logo tempoitalia

Diretta Meteo Flora, Stati Uniti (USA)lunedì 31 agosto ore 01:35

Mappa
Sereno 20 °C Sereno 24 Ore: T.min 17 T.max 34
Ponente Nord Km/h 0 Punto di rugiada: 18 °C Umidità: 88% Visibilità: 10 Km
Il sole sorge alle: 06:22 Il sole tramonta alle: 19:25
31 Agosto 2026 01:35 tempo osservato: Sereno Sereno 20 88 1017 vento: Nord N 0
31 Agosto 2026 01:15 tempo osservato: Sereno Sereno 20 88 1017 vento: Nord N 0
31 Agosto 2026 00:55 tempo osservato: Sereno Sereno 20 88 1017 vento: Nord N 0
31 Agosto 2026 00:35 tempo osservato: Sereno Sereno 22 78 1017 vento: Nord N 0
31 Agosto 2026 00:15 tempo osservato: Sereno Sereno 21 82 1017 vento: Nord N 0
30 Agosto 2026 23:55 tempo osservato: Sereno Sereno 21 82 1017 vento: Nord N 0
30 Agosto 2026 23:35 tempo osservato: Sereno Sereno 21 88 1017 vento: Nord N 0
30 Agosto 2026 23:15 tempo osservato: Sereno Sereno 21 88 1017 vento: Nord N 0
30 Agosto 2026 22:55 tempo osservato: Sereno Sereno 21 82 1017 vento: Nord N 0
30 Agosto 2026 22:35 tempo osservato: Sereno Sereno 21 88 1017 vento: Nord N 0
30 Agosto 2026 22:15 tempo osservato: Sereno Sereno 21 88 1017 vento: Nord N 0
30 Agosto 2026 21:55 tempo osservato: Sereno Sereno 21 88 1017 vento: Nord N 0
30 Agosto 2026 21:35 tempo osservato: Sereno Sereno 21 88 1017 vento: Nord N 0
30 Agosto 2026 21:15 tempo osservato: Sereno Sereno 22 83 1017 vento: Nord N 0
30 Agosto 2026 20:55 tempo osservato: Sereno Sereno 23 78 1017 vento: Nord N 0
30 Agosto 2026 20:35 tempo osservato: Sereno Sereno 23 78 1017 vento: Nord N 0
30 Agosto 2026 20:15 tempo osservato: Sereno Sereno 24 73 1016 vento: Nord N 0
30 Agosto 2026 19:55 tempo osservato: Sereno Sereno 25 65 1016 vento: Nord N 0
30 Agosto 2026 19:35 tempo osservato: Sereno Sereno 27 57 1016 vento: Nord N 5.5
30 Agosto 2026 19:15 tempo osservato: Sereno Sereno 27 61 1016 vento: Nord S/SO 7.4
30 Agosto 2026 18:55 tempo osservato: Sereno Sereno 29 54 1016 vento: Nord S/SO 7.4
30 Agosto 2026 18:35 tempo osservato: Sereno Sereno 30 48 1016 vento: Nord S 11.1
30 Agosto 2026 18:15 tempo osservato: Sereno Sereno 31 43 1016 vento: Nord S 14.8
30 Agosto 2026 17:55 tempo osservato: Sereno Sereno 32 40 1016 vento: Nord S 16.7
30 Agosto 2026 17:35 tempo osservato: Sereno Sereno 33 38 1016 vento: Nord S 16.7
30 Agosto 2026 17:15 tempo osservato: Sereno Sereno 33 38 1016 vento: Nord S/SE 20.3
30 Agosto 2026 16:55 tempo osservato: Sereno Sereno 33 36 1016 vento: Nord S 16.7
30 Agosto 2026 16:35 tempo osservato: Sereno Sereno 34 34 1016 vento: Nord S 18.5
30 Agosto 2026 16:15 tempo osservato: Sereno Sereno 34 34 1016 vento: Nord S 16.7
30 Agosto 2026 15:55 tempo osservato: Sereno Sereno 34 32 1016 vento: Nord S 16.7
30 Agosto 2026 15:30 tempo osservato: Sereno Sereno 34 34 1017 vento: Nord S/SO 16.7
30 Agosto 2026 15:15 tempo osservato: Sereno Sereno 33 36 1017 vento: Nord S 14.8
30 Agosto 2026 14:55 tempo osservato: Sereno Sereno 33 36 1017 vento: Nord S/SO 9.3
30 Agosto 2026 14:35 tempo osservato: Sereno Sereno 33 36 1017 vento: Nord O/SO 14.8
30 Agosto 2026 14:15 tempo osservato: Sereno Sereno 34 32 1017 vento: Nord S/SO 14.8
30 Agosto 2026 13:55 tempo osservato: Sereno Sereno 34 32 1018 vento: Nord S/SO 22.2
30 Agosto 2026 13:35 tempo osservato: Sereno Sereno 33 31 1018 vento: Nord SO 20.3
30 Agosto 2026 13:15 tempo osservato: Sereno Sereno 34 30 1018 vento: Nord S/SO 20.3
30 Agosto 2026 12:55 tempo osservato: Sereno Sereno 33 33 1018 vento: Nord SO 24
30 Agosto 2026 12:35 tempo osservato: Sereno Sereno 33 31 1019 vento: Nord O/SO 24
30 Agosto 2026 12:15 tempo osservato: Sereno Sereno 33 33 1019 vento: Nord SO 14.8
30 Agosto 2026 11:55 tempo osservato: Sereno Sereno 32 38 1019 vento: Nord SO 20.3
30 Agosto 2026 11:35 tempo osservato: Sereno Sereno 32 40 1019 vento: Nord S/SO 22.2
30 Agosto 2026 11:15 tempo osservato: Sereno Sereno 31 45 1019 vento: Nord SO 16.7
30 Agosto 2026 10:55 tempo osservato: Sereno Sereno 30 51 1019 vento: Nord S 18.5
30 Agosto 2026 10:35 tempo osservato: Sereno Sereno 30 55 1019 vento: Nord SO 11.1
30 Agosto 2026 10:15 tempo osservato: Sereno Sereno 29 58 1019 vento: Nord SO 16.7
30 Agosto 2026 10:00 tempo osservato: Sereno Sereno 28 58 1018 vento: Nord SO 14.8
30 Agosto 2026 09:35 tempo osservato: Sereno Sereno 28 58 1019 vento: Nord SO 14.8
30 Agosto 2026 09:15 tempo osservato: Sereno Sereno 27 61 1018 vento: Nord S/SO 13
30 Agosto 2026 08:55 tempo osservato: Sereno Sereno 25 69 1018 vento: Nord S 14.8
30 Agosto 2026 08:35 tempo osservato: Sereno Sereno 24 73 1018 vento: Nord S 9.3
30 Agosto 2026 08:15 tempo osservato: Sereno Sereno 23 78 1018 vento: Nord S/SO 11.1
30 Agosto 2026 07:55 tempo osservato: Sereno Sereno 21 82 1018 vento: Nord S 9.3
30 Agosto 2026 07:35 tempo osservato: Sereno Sereno 20 88 1018 vento: Nord S 7.4
30 Agosto 2026 07:15 tempo osservato: Sereno Sereno 18 100 1018 vento: Nord N 0
30 Agosto 2026 06:55 tempo osservato: Sereno Sereno 17 100 1018 vento: Nord N 0
30 Agosto 2026 06:35 tempo osservato: Sereno Sereno 18 93 1018 vento: Nord N 0
30 Agosto 2026 06:15 tempo osservato: Sereno Sereno 17 31 1018 vento: Nord N 0
30 Agosto 2026 05:55 tempo osservato: Sereno Sereno 17 31 1018 vento: Nord N 0
30 Agosto 2026 05:35 tempo osservato: Sereno Sereno 17 100 1018 vento: Nord N 0
30 Agosto 2026 05:15 tempo osservato: Sereno Sereno 18 100 1018 vento: Nord N 0
30 Agosto 2026 04:55 tempo osservato: Sereno Sereno 18 93 1018 vento: Nord N 0
30 Agosto 2026 04:35 tempo osservato: Sereno Sereno 18 100 1018 vento: Nord N 0
30 Agosto 2026 04:15 tempo osservato: Sereno Sereno 18 100 1018 vento: Nord N 0
30 Agosto 2026 03:55 tempo osservato: Sereno Sereno 17 100 1018 vento: Nord N 0
30 Agosto 2026 03:35 tempo osservato: Sereno Sereno 18 93 1018 vento: Nord N 0
30 Agosto 2026 03:15 tempo osservato: Sereno Sereno 18 93 1018 vento: Nord N 0
30 Agosto 2026 02:55 tempo osservato: Sereno Sereno 18 100 1018 vento: Nord N 0
30 Agosto 2026 02:35 tempo osservato: Sereno Sereno 18 100 1018 vento: Nord N 0
30 Agosto 2026 02:15 tempo osservato: Sereno Sereno 17 100 1018 vento: Nord N 0
30 Agosto 2026 01:55 tempo osservato: Sereno Sereno 18 100 1018 vento: Nord N 0
30 Agosto 2026 01:35 tempo osservato: Sereno Sereno 18 100 1018 vento: Nord N 0